sensor_id;sensor_type;location;lat;lon;timestamp;temperature;humidity
23323;DHT22;11833;52.554;13.554;2024-01-11T00:00:30;-3.70;91.50
23323;DHT22;11833;52.554;13.554;2024-01-11T00:02:56;-3.80;91.50
23323;DHT22;11833;52.554;13.554;2024-01-11T00:05:21;-3.80;91.50
23323;DHT22;11833;52.554;13.554;2024-01-11T00:07:48;-3.80;91.80
23323;DHT22;11833;52.554;13.554;2024-01-11T00:10:14;-3.70;92.10
23323;DHT22;11833;52.554;13.554;2024-01-11T00:12:39;-3.70;92.40
23323;DHT22;11833;52.554;13.554;2024-01-11T00:15:05;-3.70;92.70
23323;DHT22;11833;52.554;13.554;2024-01-11T00:17:31;-3.70;93.00
23323;DHT22;11833;52.554;13.554;2024-01-11T00:19:57;-3.60;93.10
23323;DHT22;11833;52.554;13.554;2024-01-11T00:22:23;-3.60;93.10
23323;DHT22;11833;52.554;13.554;2024-01-11T00:24:48;-3.60;93.20
23323;DHT22;11833;52.554;13.554;2024-01-11T00:27:15;-3.60;93.40
23323;DHT22;11833;52.554;13.554;2024-01-11T00:29:40;-3.60;93.90
23323;DHT22;11833;52.554;13.554;2024-01-11T00:32:06;-3.70;94.30
23323;DHT22;11833;52.554;13.554;2024-01-11T00:34:32;-3.50;94.30
23323;DHT22;11833;52.554;13.554;2024-01-11T00:36:57;-3.50;94.30
23323;DHT22;11833;52.554;13.554;2024-01-11T00:39:23;-3.60;94.60
23323;DHT22;11833;52.554;13.554;2024-01-11T00:41:49;-3.60;95.20
23323;DHT22;11833;52.554;13.554;2024-01-11T00:44:16;-3.60;95.20
23323;DHT22;11833;52.554;13.554;2024-01-11T00:46:42;-3.70;95.30
23323;DHT22;11833;52.554;13.554;2024-01-11T00:49:07;-3.70;95.80
23323;DHT22;11833;52.554;13.554;2024-01-11T00:51:33;-3.60;96.10
23323;DHT22;11833;52.554;13.554;2024-01-11T00:53:59;-3.60;96.20
23323;DHT22;11833;52.554;13.554;2024-01-11T00:56:24;-3.50;96.30
23323;DHT22;11833;52.554;13.554;2024-01-11T00:58:50;-3.50;96.10
23323;DHT22;11833;52.554;13.554;2024-01-11T01:01:16;-3.60;96.20
23323;DHT22;11833;52.554;13.554;2024-01-11T01:03:42;-3.60;96.50
23323;DHT22;11833;52.554;13.554;2024-01-11T01:06:07;-3.30;96.20
23323;DHT22;11833;52.554;13.554;2024-01-11T01:08:33;-3.30;95.30
23323;DHT22;11833;52.554;13.554;2024-01-11T01:10:59;-3.50;95.10
23323;DHT22;11833;52.554;13.554;2024-01-11T01:13:25;-3.50;95.40
23323;DHT22;11833;52.554;13.554;2024-01-11T01:15:51;-3.60;95.80
23323;DHT22;11833;52.554;13.554;2024-01-11T01:18:16;-3.80;96.40
23323;DHT22;11833;52.554;13.554;2024-01-11T01:20:42;-3.80;96.90
23323;DHT22;11833;52.554;13.554;2024-01-11T01:23:08;-3.80;97.00
23323;DHT22;11833;52.554;13.554;2024-01-11T01:25:34;-3.90;97.30
23323;DHT22;11833;52.554;13.554;2024-01-11T01:28:00;-3.70;97.20
23323;DHT22;11833;52.554;13.554;2024-01-11T01:30:27;-3.70;97.30
23323;DHT22;11833;52.554;13.554;2024-01-11T01:32:53;-3.70;97.20
23323;DHT22;11833;52.554;13.554;2024-01-11T01:35:19;-3.70;97.10
23323;DHT22;11833;52.554;13.554;2024-01-11T01:37:45;-3.80;97.30
23323;DHT22;11833;52.554;13.554;2024-01-11T01:40:14;-3.70;97.60
23323;DHT22;11833;52.554;13.554;2024-01-11T01:42:43;-3.70;97.60
23323;DHT22;11833;52.554;13.554;2024-01-11T01:45:10;-3.70;97.70
23323;DHT22;11833;52.554;13.554;2024-01-11T01:47:36;-3.70;97.50
23323;DHT22;11833;52.554;13.554;2024-01-11T01:50:04;-3.70;97.70
23323;DHT22;11833;52.554;13.554;2024-01-11T01:52:31;-3.60;97.60
23323;DHT22;11833;52.554;13.554;2024-01-11T01:54:58;-3.70;97.60
23323;DHT22;11833;52.554;13.554;2024-01-11T01:57:24;-3.60;97.60
23323;DHT22;11833;52.554;13.554;2024-01-11T01:59:51;-3.60;97.60
23323;DHT22;11833;52.554;13.554;2024-01-11T02:02:19;-3.70;97.70
23323;DHT22;11833;52.554;13.554;2024-01-11T02:04:45;-3.40;97.80
23323;DHT22;11833;52.554;13.554;2024-01-11T02:07:11;-3.40;97.50
23323;DHT22;11833;52.554;13.554;2024-01-11T02:09:37;-3.40;97.80
23323;DHT22;11833;52.554;13.554;2024-01-11T02:12:04;-3.40;97.80
23323;DHT22;11833;52.554;13.554;2024-01-11T02:14:31;-3.50;98.10
23323;DHT22;11833;52.554;13.554;2024-01-11T02:16:57;-3.40;98.20
23323;DHT22;11833;52.554;13.554;2024-01-11T02:19:23;-3.50;98.50
23323;DHT22;11833;52.554;13.554;2024-01-11T02:21:52;-3.30;98.50
23323;DHT22;11833;52.554;13.554;2024-01-11T02:24:20;-3.30;98.50
23323;DHT22;11833;52.554;13.554;2024-01-11T02:27:04;-3.10;97.90
23323;DHT22;11833;52.554;13.554;2024-01-11T02:29:31;-3.20;98.40
23323;DHT22;11833;52.554;13.554;2024-01-11T02:31:57;-3.10;98.30
23323;DHT22;11833;52.554;13.554;2024-01-11T02:34:25;-3.00;98.00
23323;DHT22;11833;52.554;13.554;2024-01-11T02:36:53;-3.00;98.00
23323;DHT22;11833;52.554;13.554;2024-01-11T02:39:19;-3.00;98.20
23323;DHT22;11833;52.554;13.554;2024-01-11T02:41:47;-3.10;98.60
23323;DHT22;11833;52.554;13.554;2024-01-11T02:44:15;-3.10;99.00
23323;DHT22;11833;52.554;13.554;2024-01-11T02:46:41;-3.10;99.50
23323;DHT22;11833;52.554;13.554;2024-01-11T02:49:07;-3.20;99.90
23323;DHT22;11833;52.554;13.554;2024-01-11T02:51:32;-3.20;99.90
23323;DHT22;11833;52.554;13.554;2024-01-11T02:53:58;-3.20;99.90
23323;DHT22;11833;52.554;13.554;2024-01-11T02:56:24;-3.20;99.90
23323;DHT22;11833;52.554;13.554;2024-01-11T02:58:50;-3.30;99.90
23323;DHT22;11833;52.554;13.554;2024-01-11T03:01:16;-3.30;99.90
23323;DHT22;11833;52.554;13.554;2024-01-11T03:03:41;-3.40;99.90
23323;DHT22;11833;52.554;13.554;2024-01-11T03:06:07;-3.20;99.90
23323;DHT22;11833;52.554;13.554;2024-01-11T03:08:33;-3.10;99.90
23323;DHT22;11833;52.554;13.554;2024-01-11T03:10:59;-3.00;99.90
23323;DHT22;11833;52.554;13.554;2024-01-11T03:13:25;-3.00;99.90
23323;DHT22;11833;52.554;13.554;2024-01-11T03:15:51;-3.10;99.90
23323;DHT22;11833;52.554;13.554;2024-01-11T03:18:16;-3.20;99.90
23323;DHT22;11833;52.554;13.554;2024-01-11T03:20:42;-3.20;99.90
23323;DHT22;11833;52.554;13.554;2024-01-11T03:23:08;-3.00;99.90
23323;DHT22;11833;52.554;13.554;2024-01-11T03:25:33;-3.00;99.90
23323;DHT22;11833;52.554;13.554;2024-01-11T03:27:59;-3.10;99.90
23323;DHT22;11833;52.554;13.554;2024-01-11T03:30:25;-3.10;99.90
23323;DHT22;11833;52.554;13.554;2024-01-11T03:32:51;-3.10;99.90
23323;DHT22;11833;52.554;13.554;2024-01-11T03:35:18;-2.80;99.90
23323;DHT22;11833;52.554;13.554;2024-01-11T03:37:45;-2.80;99.90
23323;DHT22;11833;52.554;13.554;2024-01-11T03:40:11;-2.90;99.90
23323;DHT22;11833;52.554;13.554;2024-01-11T03:42:37;-3.00;99.90
23323;DHT22;11833;52.554;13.554;2024-01-11T03:45:03;-3.10;99.90
23323;DHT22;11833;52.554;13.554;2024-01-11T03:47:30;-3.10;99.90
23323;DHT22;11833;52.554;13.554;2024-01-11T03:49:56;-3.10;99.90
23323;DHT22;11833;52.554;13.554;2024-01-11T03:52:21;-3.20;99.90
23323;DHT22;11833;52.554;13.554;2024-01-11T03:54:47;-3.30;99.90
23323;DHT22;11833;52.554;13.554;2024-01-11T03:57:14;-3.20;99.90
23323;DHT22;11833;52.554;13.554;2024-01-11T03:59:40;-3.20;99.90
23323;DHT22;11833;52.554;13.554;2024-01-11T04:02:06;-3.30;99.90
23323;DHT22;11833;52.554;13.554;2024-01-11T04:04:33;-3.30;99.90
23323;DHT22;11833;52.554;13.554;2024-01-11T04:06:59;-3.30;99.90
23323;DHT22;11833;52.554;13.554;2024-01-11T04:09:24;-3.10;99.90
23323;DHT22;11833;52.554;13.554;2024-01-11T04:11:50;-3.20;99.90
23323;DHT22;11833;52.554;13.554;2024-01-11T04:14:16;-3.20;99.90
23323;DHT22;11833;52.554;13.554;2024-01-11T04:16:42;-3.20;99.90
23323;DHT22;11833;52.554;13.554;2024-01-11T04:19:08;-3.20;99.90
23323;DHT22;11833;52.554;13.554;2024-01-11T04:21:34;-3.20;99.90
23323;DHT22;11833;52.554;13.554;2024-01-11T04:24:00;-3.10;99.90
23323;DHT22;11833;52.554;13.554;2024-01-11T04:26:26;-3.00;99.90
23323;DHT22;11833;52.554;13.554;2024-01-11T04:28:52;-3.00;99.90
23323;DHT22;11833;52.554;13.554;2024-01-11T04:31:18;-3.10;99.90
23323;DHT22;11833;52.554;13.554;2024-01-11T04:33:45;-3.10;99.90
23323;DHT22;11833;52.554;13.554;2024-01-11T04:36:12;-3.10;99.90
23323;DHT22;11833;52.554;13.554;2024-01-11T04:38:38;-3.10;99.90
23323;DHT22;11833;52.554;13.554;2024-01-11T04:41:13;-3.10;99.90
23323;DHT22;11833;52.554;13.554;2024-01-11T04:43:41;-3.10;99.90
23323;DHT22;11833;52.554;13.554;2024-01-11T04:46:18;-3.00;99.90
23323;DHT22;11833;52.554;13.554;2024-01-11T04:48:46;-3.10;99.90
23323;DHT22;11833;52.554;13.554;2024-01-11T04:51:13;-3.00;99.90
23323;DHT22;11833;52.554;13.554;2024-01-11T04:53:40;-2.90;99.90
23323;DHT22;11833;52.554;13.554;2024-01-11T04:56:07;-2.90;99.90
23323;DHT22;11833;52.554;13.554;2024-01-11T04:58:35;-3.00;99.90
23323;DHT22;11833;52.554;13.554;2024-01-11T05:01:03;-2.80;99.90
23323;DHT22;11833;52.554;13.554;2024-01-11T05:03:30;-2.80;99.90
23323;DHT22;11833;52.554;13.554;2024-01-11T05:05:57;-2.80;99.90
23323;DHT22;11833;52.554;13.554;2024-01-11T05:08:23;-2.80;99.90
23323;DHT22;11833;52.554;13.554;2024-01-11T05:10:49;-2.90;99.90
23323;DHT22;11833;52.554;13.554;2024-01-11T05:13:15;-2.90;99.90
23323;DHT22;11833;52.554;13.554;2024-01-11T05:15:42;-2.90;99.90
23323;DHT22;11833;52.554;13.554;2024-01-11T05:18:08;-2.90;99.90
23323;DHT22;11833;52.554;13.554;2024-01-11T05:20:34;-2.80;99.90
23323;DHT22;11833;52.554;13.554;2024-01-11T05:22:59;-2.80;99.90
23323;DHT22;11833;52.554;13.554;2024-01-11T05:25:26;-2.80;99.90
23323;DHT22;11833;52.554;13.554;2024-01-11T05:27:52;-2.80;99.90
23323;DHT22;11833;52.554;13.554;2024-01-11T05:30:18;-2.80;99.90
23323;DHT22;11833;52.554;13.554;2024-01-11T05:32:43;-2.80;99.90
23323;DHT22;11833;52.554;13.554;2024-01-11T05:35:09;-2.70;99.90
23323;DHT22;11833;52.554;13.554;2024-01-11T05:37:36;-2.60;99.90
23323;DHT22;11833;52.554;13.554;2024-01-11T05:40:02;-2.60;99.90
23323;DHT22;11833;52.554;13.554;2024-01-11T05:42:28;-2.70;99.90
23323;DHT22;11833;52.554;13.554;2024-01-11T05:44:54;-2.70;99.90
23323;DHT22;11833;52.554;13.554;2024-01-11T05:47:20;-2.60;99.90
23323;DHT22;11833;52.554;13.554;2024-01-11T05:49:45;-2.60;99.90
23323;DHT22;11833;52.554;13.554;2024-01-11T05:52:11;-2.60;99.90
23323;DHT22;11833;52.554;13.554;2024-01-11T05:54:37;-2.60;99.90
23323;DHT22;11833;52.554;13.554;2024-01-11T05:57:03;-2.60;99.90
23323;DHT22;11833;52.554;13.554;2024-01-11T05:59:28;-2.60;99.90
23323;DHT22;11833;52.554;13.554;2024-01-11T06:01:54;-2.50;99.90
23323;DHT22;11833;52.554;13.554;2024-01-11T06:04:20;-2.60;99.90
23323;DHT22;11833;52.554;13.554;2024-01-11T06:06:45;-2.60;99.90
23323;DHT22;11833;52.554;13.554;2024-01-11T06:09:11;-2.60;99.90
23323;DHT22;11833;52.554;13.554;2024-01-11T06:11:37;-2.60;99.90
23323;DHT22;11833;52.554;13.554;2024-01-11T06:14:03;-2.60;99.90
23323;DHT22;11833;52.554;13.554;2024-01-11T06:16:29;-2.50;99.90
23323;DHT22;11833;52.554;13.554;2024-01-11T06:18:55;-2.50;99.90
23323;DHT22;11833;52.554;13.554;2024-01-11T06:21:20;-2.50;99.90
23323;DHT22;11833;52.554;13.554;2024-01-11T06:23:46;-2.50;99.90
23323;DHT22;11833;52.554;13.554;2024-01-11T06:26:12;-2.50;99.90
23323;DHT22;11833;52.554;13.554;2024-01-11T06:28:37;-2.40;99.90
23323;DHT22;11833;52.554;13.554;2024-01-11T06:31:03;-2.40;99.90
23323;DHT22;11833;52.554;13.554;2024-01-11T06:33:29;-2.40;99.90
23323;DHT22;11833;52.554;13.554;2024-01-11T06:35:55;-2.40;99.90
23323;DHT22;11833;52.554;13.554;2024-01-11T06:38:21;-2.40;99.90
23323;DHT22;11833;52.554;13.554;2024-01-11T06:40:48;-2.50;99.90
23323;DHT22;11833;52.554;13.554;2024-01-11T06:43:14;-2.40;99.90
23323;DHT22;11833;52.554;13.554;2024-01-11T06:45:42;-2.30;99.90
23323;DHT22;11833;52.554;13.554;2024-01-11T06:48:08;-2.20;99.90
23323;DHT22;11833;52.554;13.554;2024-01-11T06:50:34;-2.30;99.90
23323;DHT22;11833;52.554;13.554;2024-01-11T06:53:00;-2.20;99.90
23323;DHT22;11833;52.554;13.554;2024-01-11T06:55:26;-2.30;99.90
23323;DHT22;11833;52.554;13.554;2024-01-11T06:57:53;-2.30;99.90
23323;DHT22;11833;52.554;13.554;2024-01-11T07:00:19;-2.30;99.90
23323;DHT22;11833;52.554;13.554;2024-01-11T07:02:45;-2.20;99.90
23323;DHT22;11833;52.554;13.554;2024-01-11T07:05:10;-2.10;99.90
23323;DHT22;11833;52.554;13.554;2024-01-11T07:07:36;-2.10;99.90
23323;DHT22;11833;52.554;13.554;2024-01-11T07:10:02;-2.10;99.90
23323;DHT22;11833;52.554;13.554;2024-01-11T07:12:31;-2.20;99.90
23323;DHT22;11833;52.554;13.554;2024-01-11T07:14:57;-2.20;99.90
23323;DHT22;11833;52.554;13.554;2024-01-11T07:17:22;-2.10;99.90
23323;DHT22;11833;52.554;13.554;2024-01-11T07:19:49;-2.10;99.90
23323;DHT22;11833;52.554;13.554;2024-01-11T07:22:14;-2.10;99.90
23323;DHT22;11833;52.554;13.554;2024-01-11T07:24:40;-2.10;99.90
23323;DHT22;11833;52.554;13.554;2024-01-11T07:27:06;-2.10;99.90
23323;DHT22;11833;52.554;13.554;2024-01-11T07:29:33;-2.10;99.90
23323;DHT22;11833;52.554;13.554;2024-01-11T07:31:59;-2.10;99.90
23323;DHT22;11833;52.554;13.554;2024-01-11T07:34:26;-2.10;99.90
23323;DHT22;11833;52.554;13.554;2024-01-11T07:36:53;-2.00;99.90
23323;DHT22;11833;52.554;13.554;2024-01-11T07:39:19;-1.90;99.90
23323;DHT22;11833;52.554;13.554;2024-01-11T07:41:45;-1.90;99.90
23323;DHT22;11833;52.554;13.554;2024-01-11T07:44:11;-1.90;99.90
23323;DHT22;11833;52.554;13.554;2024-01-11T07:46:36;-1.90;99.90
23323;DHT22;11833;52.554;13.554;2024-01-11T07:49:06;-1.90;99.90
23323;DHT22;11833;52.554;13.554;2024-01-11T07:51:33;-1.90;99.90
23323;DHT22;11833;52.554;13.554;2024-01-11T07:54:02;-1.80;99.90
23323;DHT22;11833;52.554;13.554;2024-01-11T07:56:28;-1.90;99.90
23323;DHT22;11833;52.554;13.554;2024-01-11T07:58:54;-1.70;99.90
23323;DHT22;11833;52.554;13.554;2024-01-11T08:01:20;-1.70;99.90
23323;DHT22;11833;52.554;13.554;2024-01-11T08:03:46;-1.70;99.90
23323;DHT22;11833;52.554;13.554;2024-01-11T08:06:12;-1.70;99.90
23323;DHT22;11833;52.554;13.554;2024-01-11T08:08:38;-1.60;99.90
23323;DHT22;11833;52.554;13.554;2024-01-11T08:11:07;-1.70;99.90
23323;DHT22;11833;52.554;13.554;2024-01-11T08:13:32;-1.70;99.90
23323;DHT22;11833;52.554;13.554;2024-01-11T08:16:00;-1.70;99.90
23323;DHT22;11833;52.554;13.554;2024-01-11T08:18:30;-1.60;99.90
23323;DHT22;11833;52.554;13.554;2024-01-11T08:20:56;-1.60;99.90
23323;DHT22;11833;52.554;13.554;2024-01-11T08:23:22;-1.70;99.90
23323;DHT22;11833;52.554;13.554;2024-01-11T08:25:47;-1.60;99.90
23323;DHT22;11833;52.554;13.554;2024-01-11T08:28:13;-1.60;99.90
23323;DHT22;11833;52.554;13.554;2024-01-11T08:30:39;-1.60;99.90
23323;DHT22;11833;52.554;13.554;2024-01-11T08:33:05;-1.60;99.90
23323;DHT22;11833;52.554;13.554;2024-01-11T08:35:30;-1.60;99.90
23323;DHT22;11833;52.554;13.554;2024-01-11T08:37:57;-1.50;99.90
23323;DHT22;11833;52.554;13.554;2024-01-11T08:40:23;-1.50;99.90
23323;DHT22;11833;52.554;13.554;2024-01-11T08:42:49;-1.40;99.90
23323;DHT22;11833;52.554;13.554;2024-01-11T08:45:15;-1.50;99.90
23323;DHT22;11833;52.554;13.554;2024-01-11T08:47:45;-1.40;99.90
23323;DHT22;11833;52.554;13.554;2024-01-11T08:50:15;-1.40;99.90
23323;DHT22;11833;52.554;13.554;2024-01-11T08:52:42;-1.40;99.90
23323;DHT22;11833;52.554;13.554;2024-01-11T08:55:08;-1.10;99.90
23323;DHT22;11833;52.554;13.554;2024-01-11T08:57:34;-0.70;99.90
23323;DHT22;11833;52.554;13.554;2024-01-11T09:00:04;-0.40;99.90
23323;DHT22;11833;52.554;13.554;2024-01-11T09:02:34;-0.30;99.90
23323;DHT22;11833;52.554;13.554;2024-01-11T09:05:00;-0.10;99.90
23323;DHT22;11833;52.554;13.554;2024-01-11T09:07:27;0.20;99.90
23323;DHT22;11833;52.554;13.554;2024-01-11T09:09:53;0.10;99.90
23323;DHT22;11833;52.554;13.554;2024-01-11T09:12:20;-0.10;99.90
23323;DHT22;11833;52.554;13.554;2024-01-11T09:14:45;-0.30;99.90
23323;DHT22;11833;52.554;13.554;2024-01-11T09:17:11;-0.30;99.90
23323;DHT22;11833;52.554;13.554;2024-01-11T09:19:37;-0.30;99.90
23323;DHT22;11833;52.554;13.554;2024-01-11T09:22:06;-0.30;99.90
23323;DHT22;11833;52.554;13.554;2024-01-11T09:24:33;-0.30;99.90
23323;DHT22;11833;52.554;13.554;2024-01-11T09:26:59;-0.40;99.90
23323;DHT22;11833;52.554;13.554;2024-01-11T09:29:25;-0.40;99.90
23323;DHT22;11833;52.554;13.554;2024-01-11T09:31:51;-0.60;99.90
23323;DHT22;11833;52.554;13.554;2024-01-11T09:34:17;-0.50;99.90
23323;DHT22;11833;52.554;13.554;2024-01-11T09:36:42;-0.50;99.90
23323;DHT22;11833;52.554;13.554;2024-01-11T09:39:08;-0.50;99.90
23323;DHT22;11833;52.554;13.554;2024-01-11T09:41:36;-0.50;99.90
23323;DHT22;11833;52.554;13.554;2024-01-11T09:44:05;-0.30;99.90
23323;DHT22;11833;52.554;13.554;2024-01-11T09:46:31;-0.40;99.90
23323;DHT22;11833;52.554;13.554;2024-01-11T09:48:58;-0.50;99.90
23323;DHT22;11833;52.554;13.554;2024-01-11T09:51:26;-0.40;99.90
23323;DHT22;11833;52.554;13.554;2024-01-11T09:53:55;-0.50;99.90
23323;DHT22;11833;52.554;13.554;2024-01-11T09:56:23;-0.60;99.90
23323;DHT22;11833;52.554;13.554;2024-01-11T09:58:50;-0.50;99.90
23323;DHT22;11833;52.554;13.554;2024-01-11T10:01:16;-0.30;99.90
23323;DHT22;11833;52.554;13.554;2024-01-11T10:03:43;-0.40;99.90
23323;DHT22;11833;52.554;13.554;2024-01-11T10:06:10;-0.40;99.90
23323;DHT22;11833;52.554;13.554;2024-01-11T10:08:36;-0.50;99.90
23323;DHT22;11833;52.554;13.554;2024-01-11T10:11:03;-0.40;99.90
23323;DHT22;11833;52.554;13.554;2024-01-11T10:13:30;-0.20;99.90
23323;DHT22;11833;52.554;13.554;2024-01-11T10:16:06;-0.40;99.90
23323;DHT22;11833;52.554;13.554;2024-01-11T10:18:39;-0.40;99.90
23323;DHT22;11833;52.554;13.554;2024-01-11T10:21:05;-0.40;99.90
23323;DHT22;11833;52.554;13.554;2024-01-11T10:23:33;-0.40;99.90
23323;DHT22;11833;52.554;13.554;2024-01-11T10:26:00;-0.40;99.90
23323;DHT22;11833;52.554;13.554;2024-01-11T10:28:26;-0.40;99.90
23323;DHT22;11833;52.554;13.554;2024-01-11T10:30:52;-0.40;99.90
23323;DHT22;11833;52.554;13.554;2024-01-11T10:33:20;-0.40;99.90
23323;DHT22;11833;52.554;13.554;2024-01-11T10:35:49;-0.30;99.90
23323;DHT22;11833;52.554;13.554;2024-01-11T10:38:15;-0.20;99.90
23323;DHT22;11833;52.554;13.554;2024-01-11T10:40:42;-0.10;99.90
23323;DHT22;11833;52.554;13.554;2024-01-11T10:43:12;-0.20;99.90
23323;DHT22;11833;52.554;13.554;2024-01-11T10:45:41;-0.10;99.90
23323;DHT22;11833;52.554;13.554;2024-01-11T10:48:14;-0.10;99.90
23323;DHT22;11833;52.554;13.554;2024-01-11T10:50:45;0.00;99.90
23323;DHT22;11833;52.554;13.554;2024-01-11T10:53:46;0.10;99.90
23323;DHT22;11833;52.554;13.554;2024-01-11T10:56:14;0.00;99.90
23323;DHT22;11833;52.554;13.554;2024-01-11T10:58:44;0.00;99.90
23323;DHT22;11833;52.554;13.554;2024-01-11T11:01:11;0.00;99.90
23323;DHT22;11833;52.554;13.554;2024-01-11T11:03:38;-0.10;99.90
23323;DHT22;11833;52.554;13.554;2024-01-11T11:06:06;0.00;99.90
23323;DHT22;11833;52.554;13.554;2024-01-11T11:08:33;0.00;99.90
23323;DHT22;11833;52.554;13.554;2024-01-11T11:11:01;-0.10;99.90
23323;DHT22;11833;52.554;13.554;2024-01-11T11:13:32;-0.20;99.90
23323;DHT22;11833;52.554;13.554;2024-01-11T11:16:00;-0.10;99.90
23323;DHT22;11833;52.554;13.554;2024-01-11T11:18:27;0.00;99.90
23323;DHT22;11833;52.554;13.554;2024-01-11T11:20:53;0.00;99.90
23323;DHT22;11833;52.554;13.554;2024-01-11T11:23:19;-0.10;99.90
23323;DHT22;11833;52.554;13.554;2024-01-11T11:25:46;-0.10;99.90
23323;DHT22;11833;52.554;13.554;2024-01-11T11:28:13;-0.20;99.90
23323;DHT22;11833;52.554;13.554;2024-01-11T11:30:42;-0.20;99.90
23323;DHT22;11833;52.554;13.554;2024-01-11T11:33:16;-0.20;99.90
23323;DHT22;11833;52.554;13.554;2024-01-11T11:35:43;0.00;99.90
23323;DHT22;11833;52.554;13.554;2024-01-11T11:38:21;-0.10;99.90
23323;DHT22;11833;52.554;13.554;2024-01-11T11:40:53;0.00;99.90
23323;DHT22;11833;52.554;13.554;2024-01-11T11:43:20;-0.10;99.90
23323;DHT22;11833;52.554;13.554;2024-01-11T11:45:48;-0.10;99.90
23323;DHT22;11833;52.554;13.554;2024-01-11T11:51:17;-0.10;99.90
23323;DHT22;11833;52.554;13.554;2024-01-11T11:53:47;-0.10;99.90
23323;DHT22;11833;52.554;13.554;2024-01-11T11:56:22;0.00;99.90
23323;DHT22;11833;52.554;13.554;2024-01-11T11:58:49;0.00;99.90
23323;DHT22;11833;52.554;13.554;2024-01-11T12:01:16;0.00;99.90
23323;DHT22;11833;52.554;13.554;2024-01-11T12:03:43;-0.10;99.90
23323;DHT22;11833;52.554;13.554;2024-01-11T12:06:20;-0.10;99.90
23323;DHT22;11833;52.554;13.554;2024-01-11T12:08:48;-0.10;99.90
23323;DHT22;11833;52.554;13.554;2024-01-11T12:11:23;-0.10;99.90
23323;DHT22;11833;52.554;13.554;2024-01-11T12:13:50;-0.10;99.90
23323;DHT22;11833;52.554;13.554;2024-01-11T12:16:16;-0.10;99.90
23323;DHT22;11833;52.554;13.554;2024-01-11T12:18:42;-0.10;99.90
23323;DHT22;11833;52.554;13.554;2024-01-11T12:21:08;-0.10;99.90
23323;DHT22;11833;52.554;13.554;2024-01-11T12:23:34;0.00;99.90
23323;DHT22;11833;52.554;13.554;2024-01-11T12:26:02;0.00;99.90
23323;DHT22;11833;52.554;13.554;2024-01-11T12:28:33;0.10;99.90
23323;DHT22;11833;52.554;13.554;2024-01-11T12:30:59;0.20;99.90
23323;DHT22;11833;52.554;13.554;2024-01-11T12:33:26;0.10;99.90
23323;DHT22;11833;52.554;13.554;2024-01-11T12:35:52;0.10;99.90
23323;DHT22;11833;52.554;13.554;2024-01-11T12:38:18;0.20;99.90
23323;DHT22;11833;52.554;13.554;2024-01-11T12:40:45;0.20;99.90
23323;DHT22;11833;52.554;13.554;2024-01-11T12:43:12;0.20;99.90
23323;DHT22;11833;52.554;13.554;2024-01-11T12:45:38;0.20;99.90
23323;DHT22;11833;52.554;13.554;2024-01-11T12:48:07;0.20;99.90
23323;DHT22;11833;52.554;13.554;2024-01-11T12:50:34;0.20;99.90
23323;DHT22;11833;52.554;13.554;2024-01-11T12:53:11;0.20;99.90
23323;DHT22;11833;52.554;13.554;2024-01-11T12:56:04;0.30;99.90
23323;DHT22;11833;52.554;13.554;2024-01-11T12:58:33;0.30;99.90
23323;DHT22;11833;52.554;13.554;2024-01-11T13:00:59;0.30;99.90
23323;DHT22;11833;52.554;13.554;2024-01-11T13:03:25;0.20;99.90
23323;DHT22;11833;52.554;13.554;2024-01-11T13:05:52;0.20;99.90
23323;DHT22;11833;52.554;13.554;2024-01-11T13:08:18;0.20;99.90
23323;DHT22;11833;52.554;13.554;2024-01-11T13:10:44;0.20;99.90
23323;DHT22;11833;52.554;13.554;2024-01-11T13:13:09;0.30;99.90
23323;DHT22;11833;52.554;13.554;2024-01-11T13:15:35;0.30;99.90
23323;DHT22;11833;52.554;13.554;2024-01-11T13:18:02;0.30;99.90
23323;DHT22;11833;52.554;13.554;2024-01-11T13:20:28;0.30;99.90
23323;DHT22;11833;52.554;13.554;2024-01-11T13:25:40;0.20;99.90
23323;DHT22;11833;52.554;13.554;2024-01-11T13:28:06;0.40;99.90
23323;DHT22;11833;52.554;13.554;2024-01-11T13:30:32;0.40;99.90
23323;DHT22;11833;52.554;13.554;2024-01-11T13:32:58;0.40;99.90
23323;DHT22;11833;52.554;13.554;2024-01-11T13:35:24;0.40;99.90
23323;DHT22;11833;52.554;13.554;2024-01-11T13:37:50;0.40;99.90
23323;DHT22;11833;52.554;13.554;2024-01-11T13:40:16;0.40;99.90
23323;DHT22;11833;52.554;13.554;2024-01-11T13:42:42;0.50;99.90
23323;DHT22;11833;52.554;13.554;2024-01-11T13:45:09;0.40;99.90
23323;DHT22;11833;52.554;13.554;2024-01-11T13:47:38;0.40;99.90
23323;DHT22;11833;52.554;13.554;2024-01-11T13:50:04;0.40;99.90
23323;DHT22;11833;52.554;13.554;2024-01-11T13:52:30;0.30;99.90
23323;DHT22;11833;52.554;13.554;2024-01-11T13:54:55;0.30;99.90
23323;DHT22;11833;52.554;13.554;2024-01-11T13:57:21;0.30;99.90
23323;DHT22;11833;52.554;13.554;2024-01-11T13:59:47;0.40;99.90
23323;DHT22;11833;52.554;13.554;2024-01-11T14:02:13;0.40;99.90
23323;DHT22;11833;52.554;13.554;2024-01-11T14:04:38;0.40;99.90
23323;DHT22;11833;52.554;13.554;2024-01-11T14:07:05;0.30;99.90
23323;DHT22;11833;52.554;13.554;2024-01-11T14:09:31;0.30;99.90
23323;DHT22;11833;52.554;13.554;2024-01-11T14:11:57;0.30;99.90
23323;DHT22;11833;52.554;13.554;2024-01-11T14:14:22;0.20;99.90
23323;DHT22;11833;52.554;13.554;2024-01-11T14:16:48;0.30;99.90
23323;DHT22;11833;52.554;13.554;2024-01-11T14:19:14;0.30;99.90
23323;DHT22;11833;52.554;13.554;2024-01-11T14:21:40;0.20;99.90
23323;DHT22;11833;52.554;13.554;2024-01-11T14:24:06;0.30;99.90
23323;DHT22;11833;52.554;13.554;2024-01-11T14:26:32;0.20;99.90
23323;DHT22;11833;52.554;13.554;2024-01-11T14:28:58;0.20;99.90
23323;DHT22;11833;52.554;13.554;2024-01-11T14:31:24;0.20;99.90
23323;DHT22;11833;52.554;13.554;2024-01-11T14:33:50;0.20;99.90
23323;DHT22;11833;52.554;13.554;2024-01-11T14:36:16;0.10;99.90
23323;DHT22;11833;52.554;13.554;2024-01-11T14:38:44;0.10;99.90
23323;DHT22;11833;52.554;13.554;2024-01-11T14:41:10;0.10;99.90
23323;DHT22;11833;52.554;13.554;2024-01-11T14:43:36;0.10;99.90
23323;DHT22;11833;52.554;13.554;2024-01-11T14:46:02;0.10;99.90
23323;DHT22;11833;52.554;13.554;2024-01-11T14:48:27;0.10;99.90
23323;DHT22;11833;52.554;13.554;2024-01-11T14:50:56;0.10;99.90
23323;DHT22;11833;52.554;13.554;2024-01-11T14:53:22;0.10;99.90
23323;DHT22;11833;52.554;13.554;2024-01-11T14:55:49;0.10;99.90
23323;DHT22;11833;52.554;13.554;2024-01-11T14:58:15;0.10;99.90
23323;DHT22;11833;52.554;13.554;2024-01-11T15:00:42;0.10;99.90
23323;DHT22;11833;52.554;13.554;2024-01-11T15:03:07;0.10;99.90
23323;DHT22;11833;52.554;13.554;2024-01-11T15:05:33;0.10;99.90
23323;DHT22;11833;52.554;13.554;2024-01-11T15:07:59;0.10;99.90
23323;DHT22;11833;52.554;13.554;2024-01-11T15:10:25;0.10;99.90
23323;DHT22;11833;52.554;13.554;2024-01-11T15:12:51;0.00;99.90
23323;DHT22;11833;52.554;13.554;2024-01-11T15:15:16;0.00;99.90
23323;DHT22;11833;52.554;13.554;2024-01-11T15:17:43;0.00;99.90
23323;DHT22;11833;52.554;13.554;2024-01-11T15:20:10;0.10;99.90
23323;DHT22;11833;52.554;13.554;2024-01-11T15:22:36;0.10;99.90